sensor_id;sensor_type;location;lat;lon;timestamp;temperature;humidity
26414;DHT22;14108;53.668;10.288;2022-11-15T00:00:57;9.50;78.60
26414;DHT22;14108;53.668;10.288;2022-11-15T00:03:26;9.40;78.60
26414;DHT22;14108;53.668;10.288;2022-11-15T00:05:54;9.50;78.80
26414;DHT22;14108;53.668;10.288;2022-11-15T00:08:21;9.40;78.60
26414;DHT22;14108;53.668;10.288;2022-11-15T00:10:55;9.40;78.60
26414;DHT22;14108;53.668;10.288;2022-11-15T00:13:23;9.40;78.70
26414;DHT22;14108;53.668;10.288;2022-11-15T00:15:50;9.40;78.70
26414;DHT22;14108;53.668;10.288;2022-11-15T00:18:18;9.40;78.70
26414;DHT22;14108;53.668;10.288;2022-11-15T00:20:45;9.40;78.70
26414;DHT22;14108;53.668;10.288;2022-11-15T00:23:12;9.40;78.70
26414;DHT22;14108;53.668;10.288;2022-11-15T00:25:39;9.40;78.70
26414;DHT22;14108;53.668;10.288;2022-11-15T00:28:07;9.40;78.80
26414;DHT22;14108;53.668;10.288;2022-11-15T00:30:34;9.40;78.50
26414;DHT22;14108;53.668;10.288;2022-11-15T00:33:03;9.40;78.50
26414;DHT22;14108;53.668;10.288;2022-11-15T00:35:32;9.40;78.50
26414;DHT22;14108;53.668;10.288;2022-11-15T00:38:00;9.40;78.50
26414;DHT22;14108;53.668;10.288;2022-11-15T00:40:27;9.30;78.40
26414;DHT22;14108;53.668;10.288;2022-11-15T00:42:55;9.40;78.60
26414;DHT22;14108;53.668;10.288;2022-11-15T00:45:22;9.30;78.60
26414;DHT22;14108;53.668;10.288;2022-11-15T00:47:50;9.30;78.60
26414;DHT22;14108;53.668;10.288;2022-11-15T00:50:18;9.30;78.40
26414;DHT22;14108;53.668;10.288;2022-11-15T00:52:45;9.40;78.40
26414;DHT22;14108;53.668;10.288;2022-11-15T00:55:14;9.30;78.40
26414;DHT22;14108;53.668;10.288;2022-11-15T00:57:42;9.30;78.30
26414;DHT22;14108;53.668;10.288;2022-11-15T01:00:11;9.30;78.40
26414;DHT22;14108;53.668;10.288;2022-11-15T01:02:38;9.30;78.40
26414;DHT22;14108;53.668;10.288;2022-11-15T01:05:07;9.30;78.40
26414;DHT22;14108;53.668;10.288;2022-11-15T01:07:35;9.30;78.30
26414;DHT22;14108;53.668;10.288;2022-11-15T01:10:02;9.20;78.40
26414;DHT22;14108;53.668;10.288;2022-11-15T01:12:30;9.20;78.40
26414;DHT22;14108;53.668;10.288;2022-11-15T01:14:57;9.20;78.50
26414;DHT22;14108;53.668;10.288;2022-11-15T01:17:24;9.20;78.50
26414;DHT22;14108;53.668;10.288;2022-11-15T01:19:51;9.30;78.40
26414;DHT22;14108;53.668;10.288;2022-11-15T01:22:19;9.30;78.20
26414;DHT22;14108;53.668;10.288;2022-11-15T01:24:46;9.30;78.10
26414;DHT22;14108;53.668;10.288;2022-11-15T01:27:13;9.30;77.90
26414;DHT22;14108;53.668;10.288;2022-11-15T01:29:40;9.30;77.70
26414;DHT22;14108;53.668;10.288;2022-11-15T01:32:07;9.30;77.60
26414;DHT22;14108;53.668;10.288;2022-11-15T01:34:35;9.30;77.40
26414;DHT22;14108;53.668;10.288;2022-11-15T01:37:02;9.30;78.30
26414;DHT22;14108;53.668;10.288;2022-11-15T01:39:29;9.30;77.50
26414;DHT22;14108;53.668;10.288;2022-11-15T01:41:56;9.30;77.70
26414;DHT22;14108;53.668;10.288;2022-11-15T01:44:41;9.30;77.70
26414;DHT22;14108;53.668;10.288;2022-11-15T01:47:12;9.30;77.80
26414;DHT22;14108;53.668;10.288;2022-11-15T01:49:42;9.30;77.50
26414;DHT22;14108;53.668;10.288;2022-11-15T01:52:15;9.30;77.30
26414;DHT22;14108;53.668;10.288;2022-11-15T01:54:44;9.20;77.30
26414;DHT22;14108;53.668;10.288;2022-11-15T01:57:12;9.30;77.30
26414;DHT22;14108;53.668;10.288;2022-11-15T01:59:43;9.20;77.20
26414;DHT22;14108;53.668;10.288;2022-11-15T02:02:11;9.20;77.10
26414;DHT22;14108;53.668;10.288;2022-11-15T02:04:41;9.20;77.00
26414;DHT22;14108;53.668;10.288;2022-11-15T02:07:11;9.20;76.90
26414;DHT22;14108;53.668;10.288;2022-11-15T02:09:39;9.20;76.60
26414;DHT22;14108;53.668;10.288;2022-11-15T02:12:08;9.20;76.60
26414;DHT22;14108;53.668;10.288;2022-11-15T02:14:37;9.20;76.40
26414;DHT22;14108;53.668;10.288;2022-11-15T02:20:32;9.20;76.20
26414;DHT22;14108;53.668;10.288;2022-11-15T02:26:26;9.10;76.10
26414;DHT22;14108;53.668;10.288;2022-11-15T02:29:00;9.10;75.90
26414;DHT22;14108;53.668;10.288;2022-11-15T02:31:31;9.10;75.80
26414;DHT22;14108;53.668;10.288;2022-11-15T02:34:07;9.00;75.70
26414;DHT22;14108;53.668;10.288;2022-11-15T02:36:41;9.00;75.60
26414;DHT22;14108;53.668;10.288;2022-11-15T02:39:11;9.00;75.60
26414;DHT22;14108;53.668;10.288;2022-11-15T02:41:46;9.10;75.80
26414;DHT22;14108;53.668;10.288;2022-11-15T02:44:19;9.00;75.10
26414;DHT22;14108;53.668;10.288;2022-11-15T02:46:49;9.00;75.30
26414;DHT22;14108;53.668;10.288;2022-11-15T02:49:35;9.10;75.60
26414;DHT22;14108;53.668;10.288;2022-11-15T02:52:04;9.00;75.20
26414;DHT22;14108;53.668;10.288;2022-11-15T02:54:33;8.90;75.80
26414;DHT22;14108;53.668;10.288;2022-11-15T02:57:02;8.80;76.10
26414;DHT22;14108;53.668;10.288;2022-11-15T02:59:45;8.80;76.10
26414;DHT22;14108;53.668;10.288;2022-11-15T03:02:25;8.80;76.20
26414;DHT22;14108;53.668;10.288;2022-11-15T03:04:57;8.80;76.10
26414;DHT22;14108;53.668;10.288;2022-11-15T03:07:29;8.80;76.00
26414;DHT22;14108;53.668;10.288;2022-11-15T03:10:04;8.80;76.00
26414;DHT22;14108;53.668;10.288;2022-11-15T03:12:37;8.70;76.00
26414;DHT22;14108;53.668;10.288;2022-11-15T03:15:12;8.70;75.90
26414;DHT22;14108;53.668;10.288;2022-11-15T03:17:47;8.70;76.10
26414;DHT22;14108;53.668;10.288;2022-11-15T03:20:17;8.70;76.30
26414;DHT22;14108;53.668;10.288;2022-11-15T03:22:47;8.70;76.30
26414;DHT22;14108;53.668;10.288;2022-11-15T03:25:18;8.70;76.50
26414;DHT22;14108;53.668;10.288;2022-11-15T03:27:49;8.60;76.50
26414;DHT22;14108;53.668;10.288;2022-11-15T03:30:18;8.60;76.70
26414;DHT22;14108;53.668;10.288;2022-11-15T03:32:48;8.60;76.80
26414;DHT22;14108;53.668;10.288;2022-11-15T03:35:20;8.60;76.70
26414;DHT22;14108;53.668;10.288;2022-11-15T03:37:51;8.60;76.60
26414;DHT22;14108;53.668;10.288;2022-11-15T03:40:24;8.60;76.50
26414;DHT22;14108;53.668;10.288;2022-11-15T03:42:58;8.50;76.60
26414;DHT22;14108;53.668;10.288;2022-11-15T03:45:30;8.50;76.60
26414;DHT22;14108;53.668;10.288;2022-11-15T03:48:01;8.50;76.60
26414;DHT22;14108;53.668;10.288;2022-11-15T03:50:30;8.50;76.60
26414;DHT22;14108;53.668;10.288;2022-11-15T03:52:58;8.50;76.80
26414;DHT22;14108;53.668;10.288;2022-11-15T03:55:26;8.40;76.90
26414;DHT22;14108;53.668;10.288;2022-11-15T03:57:54;8.40;77.20
26414;DHT22;14108;53.668;10.288;2022-11-15T04:00:22;8.40;77.40
26414;DHT22;14108;53.668;10.288;2022-11-15T04:02:50;8.40;77.40
26414;DHT22;14108;53.668;10.288;2022-11-15T04:05:18;8.40;77.50
26414;DHT22;14108;53.668;10.288;2022-11-15T04:07:45;8.40;77.60
26414;DHT22;14108;53.668;10.288;2022-11-15T04:10:13;8.40;77.80
26414;DHT22;14108;53.668;10.288;2022-11-15T04:12:42;8.40;77.80
26414;DHT22;14108;53.668;10.288;2022-11-15T04:15:13;8.40;77.60
26414;DHT22;14108;53.668;10.288;2022-11-15T04:17:43;8.40;77.40
26414;DHT22;14108;53.668;10.288;2022-11-15T04:20:13;8.40;77.20
26414;DHT22;14108;53.668;10.288;2022-11-15T04:23:00;8.40;77.00
26414;DHT22;14108;53.668;10.288;2022-11-15T04:25:49;8.40;76.70
26414;DHT22;14108;53.668;10.288;2022-11-15T04:28:17;8.40;76.70
26414;DHT22;14108;53.668;10.288;2022-11-15T04:30:45;8.40;76.70
26414;DHT22;14108;53.668;10.288;2022-11-15T04:33:12;8.40;76.70
26414;DHT22;14108;53.668;10.288;2022-11-15T04:35:41;8.30;76.80
26414;DHT22;14108;53.668;10.288;2022-11-15T04:38:10;8.30;77.00
26414;DHT22;14108;53.668;10.288;2022-11-15T04:40:38;8.30;77.10
26414;DHT22;14108;53.668;10.288;2022-11-15T04:43:05;8.30;77.00
26414;DHT22;14108;53.668;10.288;2022-11-15T04:45:33;8.30;76.80
26414;DHT22;14108;53.668;10.288;2022-11-15T04:48:00;8.30;77.60
26414;DHT22;14108;53.668;10.288;2022-11-15T04:50:27;8.30;76.90
26414;DHT22;14108;53.668;10.288;2022-11-15T04:52:56;8.30;77.00
26414;DHT22;14108;53.668;10.288;2022-11-15T04:55:24;8.40;76.90
26414;DHT22;14108;53.668;10.288;2022-11-15T04:57:58;8.30;76.70
26414;DHT22;14108;53.668;10.288;2022-11-15T05:00:27;8.30;76.70
26414;DHT22;14108;53.668;10.288;2022-11-15T05:02:55;8.30;76.80
26414;DHT22;14108;53.668;10.288;2022-11-15T05:05:41;8.30;77.10
26414;DHT22;14108;53.668;10.288;2022-11-15T05:08:08;8.40;77.50
26414;DHT22;14108;53.668;10.288;2022-11-15T05:10:36;8.40;77.90
26414;DHT22;14108;53.668;10.288;2022-11-15T05:13:03;8.30;78.10
26414;DHT22;14108;53.668;10.288;2022-11-15T05:15:30;8.40;78.20
26414;DHT22;14108;53.668;10.288;2022-11-15T05:18:01;8.40;78.30
26414;DHT22;14108;53.668;10.288;2022-11-15T05:20:28;8.40;78.30
26414;DHT22;14108;53.668;10.288;2022-11-15T05:22:55;8.40;78.50
26414;DHT22;14108;53.668;10.288;2022-11-15T05:25:23;8.50;78.90
26414;DHT22;14108;53.668;10.288;2022-11-15T05:27:51;8.50;79.20
26414;DHT22;14108;53.668;10.288;2022-11-15T05:30:19;8.60;79.40
26414;DHT22;14108;53.668;10.288;2022-11-15T05:32:46;8.60;79.40
26414;DHT22;14108;53.668;10.288;2022-11-15T05:35:20;8.70;79.60
26414;DHT22;14108;53.668;10.288;2022-11-15T05:37:49;8.70;79.60
26414;DHT22;14108;53.668;10.288;2022-11-15T05:40:17;8.70;79.80
26414;DHT22;14108;53.668;10.288;2022-11-15T05:42:45;8.70;79.80
26414;DHT22;14108;53.668;10.288;2022-11-15T05:45:13;8.80;80.00
26414;DHT22;14108;53.668;10.288;2022-11-15T05:47:41;8.80;79.90
26414;DHT22;14108;53.668;10.288;2022-11-15T05:50:12;8.80;79.70
26414;DHT22;14108;53.668;10.288;2022-11-15T05:52:41;8.80;79.60
26414;DHT22;14108;53.668;10.288;2022-11-15T05:55:09;8.90;79.60
26414;DHT22;14108;53.668;10.288;2022-11-15T05:57:37;8.90;79.50
26414;DHT22;14108;53.668;10.288;2022-11-15T06:00:07;8.90;79.50
26414;DHT22;14108;53.668;10.288;2022-11-15T06:02:36;8.90;79.50
26414;DHT22;14108;53.668;10.288;2022-11-15T06:05:04;9.00;79.50
26414;DHT22;14108;53.668;10.288;2022-11-15T06:07:31;9.00;79.50
26414;DHT22;14108;53.668;10.288;2022-11-15T06:09:58;9.10;79.70
26414;DHT22;14108;53.668;10.288;2022-11-15T06:12:25;9.10;79.40
26414;DHT22;14108;53.668;10.288;2022-11-15T06:14:53;9.10;79.30
26414;DHT22;14108;53.668;10.288;2022-11-15T06:17:20;9.10;79.40
26414;DHT22;14108;53.668;10.288;2022-11-15T06:19:47;9.10;79.30
26414;DHT22;14108;53.668;10.288;2022-11-15T06:22:14;9.10;79.30
26414;DHT22;14108;53.668;10.288;2022-11-15T06:24:41;9.10;79.20
26414;DHT22;14108;53.668;10.288;2022-11-15T06:27:11;9.10;79.60
26414;DHT22;14108;53.668;10.288;2022-11-15T06:29:38;9.20;80.70
26414;DHT22;14108;53.668;10.288;2022-11-15T06:32:05;9.30;81.30
26414;DHT22;14108;53.668;10.288;2022-11-15T06:34:32;9.40;81.60
26414;DHT22;14108;53.668;10.288;2022-11-15T06:37:00;9.50;81.00
26414;DHT22;14108;53.668;10.288;2022-11-15T06:39:27;9.50;79.90
26414;DHT22;14108;53.668;10.288;2022-11-15T06:41:54;9.50;79.40
26414;DHT22;14108;53.668;10.288;2022-11-15T06:44:21;9.50;78.50
26414;DHT22;14108;53.668;10.288;2022-11-15T06:46:48;9.50;78.90
26414;DHT22;14108;53.668;10.288;2022-11-15T06:49:16;9.50;77.80
26414;DHT22;14108;53.668;10.288;2022-11-15T06:51:43;9.60;77.70
26414;DHT22;14108;53.668;10.288;2022-11-15T06:54:10;9.60;77.60
26414;DHT22;14108;53.668;10.288;2022-11-15T06:56:37;9.60;77.50
26414;DHT22;14108;53.668;10.288;2022-11-15T06:59:05;9.60;77.40
26414;DHT22;14108;53.668;10.288;2022-11-15T07:01:32;9.60;78.30
26414;DHT22;14108;53.668;10.288;2022-11-15T07:03:59;9.50;77.50
26414;DHT22;14108;53.668;10.288;2022-11-15T07:06:26;9.50;77.50
26414;DHT22;14108;53.668;10.288;2022-11-15T07:08:53;9.50;77.50
26414;DHT22;14108;53.668;10.288;2022-11-15T07:11:21;9.60;77.60
26414;DHT22;14108;53.668;10.288;2022-11-15T07:13:48;9.50;77.60
26414;DHT22;14108;53.668;10.288;2022-11-15T07:16:15;9.60;77.70
26414;DHT22;14108;53.668;10.288;2022-11-15T07:18:42;9.60;77.60
26414;DHT22;14108;53.668;10.288;2022-11-15T07:21:10;9.60;77.60
26414;DHT22;14108;53.668;10.288;2022-11-15T07:23:38;9.60;77.50
26414;DHT22;14108;53.668;10.288;2022-11-15T07:26:06;9.60;77.50
26414;DHT22;14108;53.668;10.288;2022-11-15T07:28:34;9.70;77.60
26414;DHT22;14108;53.668;10.288;2022-11-15T07:33:38;9.70;77.60
26414;DHT22;14108;53.668;10.288;2022-11-15T07:36:08;9.70;77.70
26414;DHT22;14108;53.668;10.288;2022-11-15T07:38:36;9.70;77.60
26414;DHT22;14108;53.668;10.288;2022-11-15T07:41:05;9.70;77.50
26414;DHT22;14108;53.668;10.288;2022-11-15T07:43:32;9.70;77.60
26414;DHT22;14108;53.668;10.288;2022-11-15T07:46:04;9.80;77.70
26414;DHT22;14108;53.668;10.288;2022-11-15T07:48:32;9.80;78.10
26414;DHT22;14108;53.668;10.288;2022-11-15T07:50:59;9.80;77.70
26414;DHT22;14108;53.668;10.288;2022-11-15T07:53:26;9.80;77.60
26414;DHT22;14108;53.668;10.288;2022-11-15T07:55:54;9.80;77.50
26414;DHT22;14108;53.668;10.288;2022-11-15T07:58:21;9.90;77.60
26414;DHT22;14108;53.668;10.288;2022-11-15T08:00:48;9.90;77.60
26414;DHT22;14108;53.668;10.288;2022-11-15T08:03:16;9.90;77.50
26414;DHT22;14108;53.668;10.288;2022-11-15T08:05:49;9.90;77.50
26414;DHT22;14108;53.668;10.288;2022-11-15T08:08:16;9.90;77.40
26414;DHT22;14108;53.668;10.288;2022-11-15T08:10:44;10.00;77.50
26414;DHT22;14108;53.668;10.288;2022-11-15T08:13:12;10.00;77.50
26414;DHT22;14108;53.668;10.288;2022-11-15T08:15:39;10.00;77.50
26414;DHT22;14108;53.668;10.288;2022-11-15T08:18:10;10.00;77.40
26414;DHT22;14108;53.668;10.288;2022-11-15T08:20:38;10.00;77.30
26414;DHT22;14108;53.668;10.288;2022-11-15T08:25:43;10.10;77.30
26414;DHT22;14108;53.668;10.288;2022-11-15T08:28:11;10.10;77.20
26414;DHT22;14108;53.668;10.288;2022-11-15T08:30:41;10.10;77.10
26414;DHT22;14108;53.668;10.288;2022-11-15T08:33:11;10.10;77.20
26414;DHT22;14108;53.668;10.288;2022-11-15T08:35:39;10.10;77.10
26414;DHT22;14108;53.668;10.288;2022-11-15T08:38:06;10.10;77.20
26414;DHT22;14108;53.668;10.288;2022-11-15T08:40:33;10.10;77.10
26414;DHT22;14108;53.668;10.288;2022-11-15T08:43:00;10.10;77.10
26414;DHT22;14108;53.668;10.288;2022-11-15T08:45:29;10.20;77.20
26414;DHT22;14108;53.668;10.288;2022-11-15T08:47:56;10.20;77.10
26414;DHT22;14108;53.668;10.288;2022-11-15T08:50:23;10.20;77.10
26414;DHT22;14108;53.668;10.288;2022-11-15T08:52:51;10.20;77.10
26414;DHT22;14108;53.668;10.288;2022-11-15T08:55:19;10.20;77.10
26414;DHT22;14108;53.668;10.288;2022-11-15T08:57:46;10.20;77.00
26414;DHT22;14108;53.668;10.288;2022-11-15T09:00:16;10.30;77.00
26414;DHT22;14108;53.668;10.288;2022-11-15T09:02:44;10.30;77.10
26414;DHT22;14108;53.668;10.288;2022-11-15T09:05:11;10.30;77.10
26414;DHT22;14108;53.668;10.288;2022-11-15T09:07:38;10.30;77.10
26414;DHT22;14108;53.668;10.288;2022-11-15T09:10:07;10.30;77.00
26414;DHT22;14108;53.668;10.288;2022-11-15T09:12:35;10.30;77.10
26414;DHT22;14108;53.668;10.288;2022-11-15T09:17:38;10.40;77.20
26414;DHT22;14108;53.668;10.288;2022-11-15T09:20:08;10.40;77.10
26414;DHT22;14108;53.668;10.288;2022-11-15T09:22:36;10.50;77.20
26414;DHT22;14108;53.668;10.288;2022-11-15T09:25:07;10.50;77.30
26414;DHT22;14108;53.668;10.288;2022-11-15T09:27:34;10.50;77.30
26414;DHT22;14108;53.668;10.288;2022-11-15T09:30:02;10.50;77.20
26414;DHT22;14108;53.668;10.288;2022-11-15T09:32:30;10.60;77.20
26414;DHT22;14108;53.668;10.288;2022-11-15T09:34:57;10.60;77.20
26414;DHT22;14108;53.668;10.288;2022-11-15T09:37:25;10.70;77.30
26414;DHT22;14108;53.668;10.288;2022-11-15T09:39:52;10.70;77.30
26414;DHT22;14108;53.668;10.288;2022-11-15T09:42:30;10.70;77.20
26414;DHT22;14108;53.668;10.288;2022-11-15T09:45:15;10.70;77.20
26414;DHT22;14108;53.668;10.288;2022-11-15T09:48:03;10.80;77.10
26414;DHT22;14108;53.668;10.288;2022-11-15T09:50:38;10.80;77.00
26414;DHT22;14108;53.668;10.288;2022-11-15T09:53:10;10.90;77.00
26414;DHT22;14108;53.668;10.288;2022-11-15T09:55:44;10.90;77.10
26414;DHT22;14108;53.668;10.288;2022-11-15T10:00:52;10.90;77.10
26414;DHT22;14108;53.668;10.288;2022-11-15T10:03:26;11.00;77.10
26414;DHT22;14108;53.668;10.288;2022-11-15T10:05:56;11.00;77.10
26414;DHT22;14108;53.668;10.288;2022-11-15T10:08:33;11.00;77.10
26414;DHT22;14108;53.668;10.288;2022-11-15T10:11:05;11.10;77.20
26414;DHT22;14108;53.668;10.288;2022-11-15T10:16:25;11.10;77.10
26414;DHT22;14108;53.668;10.288;2022-11-15T10:19:00;11.20;77.20
26414;DHT22;14108;53.668;10.288;2022-11-15T10:21:35;11.20;77.00
26414;DHT22;14108;53.668;10.288;2022-11-15T10:24:11;11.20;77.00
26414;DHT22;14108;53.668;10.288;2022-11-15T10:26:43;11.20;77.00
26414;DHT22;14108;53.668;10.288;2022-11-15T10:31:55;11.30;76.90
26414;DHT22;14108;53.668;10.288;2022-11-15T10:34:23;11.30;76.90
26414;DHT22;14108;53.668;10.288;2022-11-15T10:36:55;11.40;77.10
26414;DHT22;14108;53.668;10.288;2022-11-15T10:39:23;11.40;77.20
26414;DHT22;14108;53.668;10.288;2022-11-15T10:41:51;11.40;77.20
26414;DHT22;14108;53.668;10.288;2022-11-15T10:44:24;11.50;77.20
26414;DHT22;14108;53.668;10.288;2022-11-15T10:50:24;11.60;77.10
26414;DHT22;14108;53.668;10.288;2022-11-15T10:52:54;11.60;76.90
26414;DHT22;14108;53.668;10.288;2022-11-15T10:55:25;11.70;76.80
26414;DHT22;14108;53.668;10.288;2022-11-15T10:57:54;11.60;76.90
26414;DHT22;14108;53.668;10.288;2022-11-15T11:00:33;11.70;76.90
26414;DHT22;14108;53.668;10.288;2022-11-15T11:03:02;11.70;77.00
26414;DHT22;14108;53.668;10.288;2022-11-15T11:05:32;11.80;76.90
26414;DHT22;14108;53.668;10.288;2022-11-15T11:08:02;11.80;76.80
26414;DHT22;14108;53.668;10.288;2022-11-15T11:10:30;11.80;76.80
26414;DHT22;14108;53.668;10.288;2022-11-15T11:13:14;11.80;76.70
26414;DHT22;14108;53.668;10.288;2022-11-15T11:15:43;11.80;76.70
26414;DHT22;14108;53.668;10.288;2022-11-15T11:18:16;11.80;76.60
26414;DHT22;14108;53.668;10.288;2022-11-15T11:20:46;11.90;76.70
26414;DHT22;14108;53.668;10.288;2022-11-15T11:23:28;12.00;76.60
26414;DHT22;14108;53.668;10.288;2022-11-15T11:26:07;11.90;76.30
26414;DHT22;14108;53.668;10.288;2022-11-15T11:28:45;12.00;76.60
26414;DHT22;14108;53.668;10.288;2022-11-15T11:31:23;12.00;76.70
26414;DHT22;14108;53.668;10.288;2022-11-15T11:34:00;12.00;76.80
26414;DHT22;14108;53.668;10.288;2022-11-15T11:36:38;12.00;76.80
26414;DHT22;14108;53.668;10.288;2022-11-15T11:39:21;12.10;76.90
26414;DHT22;14108;53.668;10.288;2022-11-15T11:41:56;12.10;76.90
26414;DHT22;14108;53.668;10.288;2022-11-15T11:44:33;12.10;76.80
26414;DHT22;14108;53.668;10.288;2022-11-15T11:47:03;12.20;77.60
26414;DHT22;14108;53.668;10.288;2022-11-15T11:49:41;12.20;76.70
26414;DHT22;14108;53.668;10.288;2022-11-15T11:52:12;12.30;76.80
26414;DHT22;14108;53.668;10.288;2022-11-15T11:54:49;12.30;76.80
26414;DHT22;14108;53.668;10.288;2022-11-15T11:57:28;12.40;76.70
26414;DHT22;14108;53.668;10.288;2022-11-15T12:00:02;12.40;76.60
26414;DHT22;14108;53.668;10.288;2022-11-15T12:02:34;12.40;76.60
26414;DHT22;14108;53.668;10.288;2022-11-15T12:05:11;12.40;76.50
26414;DHT22;14108;53.668;10.288;2022-11-15T12:10:22;12.50;76.50
26414;DHT22;14108;53.668;10.288;2022-11-15T12:12:55;12.60;76.60
26414;DHT22;14108;53.668;10.288;2022-11-15T12:15:26;12.50;76.50
26414;DHT22;14108;53.668;10.288;2022-11-15T12:17:56;12.60;76.40
26414;DHT22;14108;53.668;10.288;2022-11-15T12:20:25;12.60;76.30
26414;DHT22;14108;53.668;10.288;2022-11-15T12:22:57;12.70;76.20
26414;DHT22;14108;53.668;10.288;2022-11-15T12:25:28;12.70;76.10
26414;DHT22;14108;53.668;10.288;2022-11-15T12:28:01;12.70;76.00
26414;DHT22;14108;53.668;10.288;2022-11-15T12:30:47;12.80;76.00
26414;DHT22;14108;53.668;10.288;2022-11-15T12:33:31;12.80;76.00
26414;DHT22;14108;53.668;10.288;2022-11-15T12:36:02;12.80;75.80
26414;DHT22;14108;53.668;10.288;2022-11-15T12:38:53;12.80;75.90
26414;DHT22;14108;53.668;10.288;2022-11-15T12:41:21;12.80;76.20
26414;DHT22;14108;53.668;10.288;2022-11-15T12:43:49;12.90;76.10
26414;DHT22;14108;53.668;10.288;2022-11-15T12:46:23;12.90;76.40
26414;DHT22;14108;53.668;10.288;2022-11-15T12:48:55;12.90;76.40
26414;DHT22;14108;53.668;10.288;2022-11-15T12:55:29;13.00;76.20
26414;DHT22;14108;53.668;10.288;2022-11-15T12:58:26;13.10;75.90
26414;DHT22;14108;53.668;10.288;2022-11-15T13:00:54;13.00;75.80
26414;DHT22;14108;53.668;10.288;2022-11-15T13:03:26;13.00;75.60
26414;DHT22;14108;53.668;10.288;2022-11-15T13:06:07;13.00;75.60
26414;DHT22;14108;53.668;10.288;2022-11-15T13:11:44;13.10;75.60
26414;DHT22;14108;53.668;10.288;2022-11-15T13:14:43;13.10;75.50
26414;DHT22;14108;53.668;10.288;2022-11-15T13:20:25;13.10;75.40
26414;DHT22;14108;53.668;10.288;2022-11-15T13:22:59;13.10;75.40
26414;DHT22;14108;53.668;10.288;2022-11-15T13:28:37;13.10;75.50
26414;DHT22;14108;53.668;10.288;2022-11-15T13:31:27;13.20;75.40
26414;DHT22;14108;53.668;10.288;2022-11-15T13:33:57;13.20;75.50
26414;DHT22;14108;53.668;10.288;2022-11-15T13:36:29;13.20;75.40
26414;DHT22;14108;53.668;10.288;2022-11-15T13:39:00;13.20;75.50
26414;DHT22;14108;53.668;10.288;2022-11-15T13:41:29;13.20;75.50
26414;DHT22;14108;53.668;10.288;2022-11-15T13:43:59;13.20;75.40
26414;DHT22;14108;53.668;10.288;2022-11-15T13:46:27;13.20;75.40
26414;DHT22;14108;53.668;10.288;2022-11-15T13:48:58;13.20;75.40
26414;DHT22;14108;53.668;10.288;2022-11-15T13:51:36;13.20;75.40
26414;DHT22;14108;53.668;10.288;2022-11-15T13:54:09;13.20;75.30
26414;DHT22;14108;53.668;10.288;2022-11-15T13:56:42;13.20;75.30
26414;DHT22;14108;53.668;10.288;2022-11-15T13:59:13;13.20;75.20
26414;DHT22;14108;53.668;10.288;2022-11-15T14:01:43;13.20;75.20
26414;DHT22;14108;53.668;10.288;2022-11-15T14:04:12;13.30;75.40
26414;DHT22;14108;53.668;10.288;2022-11-15T14:06:45;13.30;75.30
26414;DHT22;14108;53.668;10.288;2022-11-15T14:09:32;13.30;75.30
26414;DHT22;14108;53.668;10.288;2022-11-15T14:12:01;13.30;75.30
26414;DHT22;14108;53.668;10.288;2022-11-15T14:14:30;13.30;75.20
26414;DHT22;14108;53.668;10.288;2022-11-15T14:16:59;13.30;75.30
26414;DHT22;14108;53.668;10.288;2022-11-15T14:19:39;13.40;75.30
26414;DHT22;14108;53.668;10.288;2022-11-15T14:22:16;13.30;75.30
26414;DHT22;14108;53.668;10.288;2022-11-15T14:24:46;13.30;75.10
26414;DHT22;14108;53.668;10.288;2022-11-15T14:27:22;13.40;75.20
26414;DHT22;14108;53.668;10.288;2022-11-15T14:29:50;13.30;75.20
26414;DHT22;14108;53.668;10.288;2022-11-15T14:32:20;13.30;75.10
26414;DHT22;14108;53.668;10.288;2022-11-15T14:34:48;13.40;75.10
26414;DHT22;14108;53.668;10.288;2022-11-15T14:37:27;13.30;74.90
26414;DHT22;14108;53.668;10.288;2022-11-15T14:39:55;13.30;74.90
26414;DHT22;14108;53.668;10.288;2022-11-15T14:42:23;13.30;74.90
26414;DHT22;14108;53.668;10.288;2022-11-15T14:44:51;13.30;75.00
26414;DHT22;14108;53.668;10.288;2022-11-15T14:47:18;13.30;75.00
26414;DHT22;14108;53.668;10.288;2022-11-15T14:49:46;13.30;75.00
26414;DHT22;14108;53.668;10.288;2022-11-15T14:52:28;13.30;75.00
26414;DHT22;14108;53.668;10.288;2022-11-15T14:54:56;13.30;75.10
26414;DHT22;14108;53.668;10.288;2022-11-15T14:57:24;13.30;74.90
26414;DHT22;14108;53.668;10.288;2022-11-15T14:59:52;13.20;74.90
26414;DHT22;14108;53.668;10.288;2022-11-15T15:02:20;13.30;75.10
26414;DHT22;14108;53.668;10.288;2022-11-15T15:04:48;13.20;74.90
26414;DHT22;14108;53.668;10.288;2022-11-15T15:07:16;13.20;74.90
26414;DHT22;14108;53.668;10.288;2022-11-15T15:09:44;13.20;74.90
26414;DHT22;14108;53.668;10.288;2022-11-15T15:12:17;13.20;74.80
26414;DHT22;14108;53.668;10.288;2022-11-15T15:14:45;13.20;74.70
26414;DHT22;14108;53.668;10.288;2022-11-15T15:17:13;13.20;74.70
26414;DHT22;14108;53.668;10.288;2022-11-15T15:19:40;13.20;74.70
26414;DHT22;14108;53.668;10.288;2022-11-15T15:22:12;13.20;74.50
26414;DHT22;14108;53.668;10.288;2022-11-15T15:24:41;13.10;74.40
26414;DHT22;14108;53.668;10.288;2022-11-15T15:27:08;13.20;75.10
26414;DHT22;14108;53.668;10.288;2022-11-15T15:29:35;13.20;74.10
26414;DHT22;14108;53.668;10.288;2022-11-15T15:32:03;13.10;74.00
26414;DHT22;14108;53.668;10.288;2022-11-15T15:34:30;13.10;74.00
26414;DHT22;14108;53.668;10.288;2022-11-15T15:37:09;13.10;74.00
26414;DHT22;14108;53.668;10.288;2022-11-15T15:39:46;13.10;74.00
26414;DHT22;14108;53.668;10.288;2022-11-15T15:42:13;13.10;73.80
26414;DHT22;14108;53.668;10.288;2022-11-15T15:44:40;13.00;73.80
26414;DHT22;14108;53.668;10.288;2022-11-15T15:49:48;13.00;73.80
26414;DHT22;14108;53.668;10.288;2022-11-15T15:52:16;13.00;73.70
26414;DHT22;14108;53.668;10.288;2022-11-15T15:54:44;12.90;73.80
26414;DHT22;14108;53.668;10.288;2022-11-15T15:57:13;12.90;75.10
26414;DHT22;14108;53.668;10.288;2022-11-15T15:59:40;12.90;74.80
26414;DHT22;14108;53.668;10.288;2022-11-15T16:02:10;12.80;74.90
26414;DHT22;14108;53.668;10.288;2022-11-15T16:04:38;12.80;75.40
26414;DHT22;14108;53.668;10.288;2022-11-15T16:07:07;12.80;75.70
26414;DHT22;14108;53.668;10.288;2022-11-15T16:09:39;12.80;76.00
26414;DHT22;14108;53.668;10.288;2022-11-15T16:12:35;12.80;76.20
26414;DHT22;14108;53.668;10.288;2022-11-15T16:15:04;12.80;76.20
26414;DHT22;14108;53.668;10.288;2022-11-15T16:17:33;12.80;76.50
26414;DHT22;14108;53.668;10.288;2022-11-15T16:20:03;12.80;76.70
26414;DHT22;14108;53.668;10.288;2022-11-15T16:22:30;12.80;76.90
26414;DHT22;14108;53.668;10.288;2022-11-15T16:24:57;12.80;77.00
26414;DHT22;14108;53.668;10.288;2022-11-15T16:27:25;12.80;77.00